sensor_id;sensor_type;location;lat;lon;timestamp;pressure;altitude;pressure_sealevel;temperature;humidity
31331;BME280;34067;39.548;-76.088;2024-01-30T00:00:20;101606.69;;;0.38;61.32
31331;BME280;34067;39.548;-76.088;2024-01-30T00:02:48;101619.20;;;0.52;61.01
31331;BME280;34067;39.548;-76.088;2024-01-30T00:05:16;101611.07;;;0.70;61.80
31331;BME280;34067;39.548;-76.088;2024-01-30T00:07:44;101614.72;;;0.13;61.67
31331;BME280;34067;39.548;-76.088;2024-01-30T00:10:13;101619.18;;;0.14;59.49
31331;BME280;34067;39.548;-76.088;2024-01-30T00:12:41;101625.42;;;0.28;63.38
31331;BME280;34067;39.548;-76.088;2024-01-30T00:15:09;101635.92;;;1.29;61.04
31331;BME280;34067;39.548;-76.088;2024-01-30T00:17:37;101629.82;;;0.71;62.17
31331;BME280;34067;39.548;-76.088;2024-01-30T00:20:06;101640.84;;;0.43;60.25
31331;BME280;34067;39.548;-76.088;2024-01-30T00:22:34;101645.63;;;0.73;59.29
31331;BME280;34067;39.548;-76.088;2024-01-30T00:25:03;101644.98;;;1.17;59.66
31331;BME280;34067;39.548;-76.088;2024-01-30T00:27:31;101643.19;;;0.91;57.07
31331;BME280;34067;39.548;-76.088;2024-01-30T00:29:59;101651.14;;;1.78;59.53
31331;BME280;34067;39.548;-76.088;2024-01-30T00:32:27;101651.50;;;0.64;56.65
31331;BME280;34067;39.548;-76.088;2024-01-30T00:34:55;101653.26;;;1.03;60.40
31331;BME280;34067;39.548;-76.088;2024-01-30T00:37:24;101655.07;;;1.11;56.69
31331;BME280;34067;39.548;-76.088;2024-01-30T00:39:52;101665.96;;;1.07;57.92
31331;BME280;34067;39.548;-76.088;2024-01-30T00:42:21;101670.10;;;2.12;56.61
31331;BME280;34067;39.548;-76.088;2024-01-30T00:44:49;101672.62;;;0.32;56.80
31331;BME280;34067;39.548;-76.088;2024-01-30T00:47:17;101673.77;;;1.03;56.72
31331;BME280;34067;39.548;-76.088;2024-01-30T00:49:44;101680.24;;;0.38;57.85
31331;BME280;34067;39.548;-76.088;2024-01-30T00:52:12;101681.71;;;1.06;57.78
31331;BME280;34067;39.548;-76.088;2024-01-30T00:54:39;101688.90;;;1.09;56.74
31331;BME280;34067;39.548;-76.088;2024-01-30T00:57:08;101694.30;;;0.87;58.19
31331;BME280;34067;39.548;-76.088;2024-01-30T00:59:36;101695.60;;;1.43;58.09
31331;BME280;34067;39.548;-76.088;2024-01-30T01:02:04;101701.32;;;1.12;57.26
31331;BME280;34067;39.548;-76.088;2024-01-30T01:04:32;101703.02;;;1.34;55.56
31331;BME280;34067;39.548;-76.088;2024-01-30T01:06:59;101705.50;;;1.41;56.56
31331;BME280;34067;39.548;-76.088;2024-01-30T01:09:26;101716.83;;;0.69;56.72
31331;BME280;34067;39.548;-76.088;2024-01-30T01:11:54;101722.87;;;1.01;57.36
31331;BME280;34067;39.548;-76.088;2024-01-30T01:14:22;101726.19;;;1.35;57.14
31331;BME280;34067;39.548;-76.088;2024-01-30T01:16:50;101738.41;;;1.50;56.04
31331;BME280;34067;39.548;-76.088;2024-01-30T01:19:17;101735.39;;;1.38;55.76
31331;BME280;34067;39.548;-76.088;2024-01-30T01:21:45;101742.59;;;0.53;57.62
31331;BME280;34067;39.548;-76.088;2024-01-30T01:24:14;101746.44;;;1.26;57.45
31331;BME280;34067;39.548;-76.088;2024-01-30T01:26:42;101753.09;;;0.78;57.84
31331;BME280;34067;39.548;-76.088;2024-01-30T01:29:10;101750.77;;;1.13;59.29
31331;BME280;34067;39.548;-76.088;2024-01-30T01:31:39;101754.29;;;0.76;57.51
31331;BME280;34067;39.548;-76.088;2024-01-30T01:34:07;101758.66;;;1.34;57.89
31331;BME280;34067;39.548;-76.088;2024-01-30T01:36:35;101761.75;;;1.43;58.28
31331;BME280;34067;39.548;-76.088;2024-01-30T01:39:04;101760.77;;;0.62;58.56
31331;BME280;34067;39.548;-76.088;2024-01-30T01:41:32;101770.52;;;0.81;57.58
31331;BME280;34067;39.548;-76.088;2024-01-30T01:44:00;101769.80;;;1.12;58.81
31331;BME280;34067;39.548;-76.088;2024-01-30T01:46:31;101776.16;;;0.95;58.51
31331;BME280;34067;39.548;-76.088;2024-01-30T01:49:02;101787.17;;;0.97;57.39
31331;BME280;34067;39.548;-76.088;2024-01-30T01:51:34;101788.38;;;0.39;58.15
31331;BME280;34067;39.548;-76.088;2024-01-30T01:54:04;101794.32;;;0.24;57.11
31331;BME280;34067;39.548;-76.088;2024-01-30T01:56:33;101791.31;;;1.39;57.17
31331;BME280;34067;39.548;-76.088;2024-01-30T01:59:06;101790.51;;;1.57;54.88
31331;BME280;34067;39.548;-76.088;2024-01-30T02:01:34;101787.64;;;1.93;55.37
31331;BME280;34067;39.548;-76.088;2024-01-30T02:04:02;101791.81;;;2.01;57.23
31331;BME280;34067;39.548;-76.088;2024-01-30T02:06:30;101800.69;;;1.09;56.26
31331;BME280;34067;39.548;-76.088;2024-01-30T02:08:58;101802.37;;;1.15;56.46
31331;BME280;34067;39.548;-76.088;2024-01-30T02:11:27;101803.67;;;2.18;57.33
31331;BME280;34067;39.548;-76.088;2024-01-30T02:13:56;101810.69;;;1.31;56.84
31331;BME280;34067;39.548;-76.088;2024-01-30T02:16:24;101819.77;;;1.78;56.63
31331;BME280;34067;39.548;-76.088;2024-01-30T02:18:52;101818.42;;;2.43;55.59
31331;BME280;34067;39.548;-76.088;2024-01-30T02:21:20;101824.43;;;1.79;57.10
31331;BME280;34067;39.548;-76.088;2024-01-30T02:23:49;101826.02;;;2.13;55.79
31331;BME280;34067;39.548;-76.088;2024-01-30T02:26:17;101830.98;;;0.94;56.48
31331;BME280;34067;39.548;-76.088;2024-01-30T02:28:45;101831.97;;;0.34;57.88
31331;BME280;34067;39.548;-76.088;2024-01-30T02:31:13;101837.04;;;1.24;57.60
31331;BME280;34067;39.548;-76.088;2024-01-30T02:33:42;101840.62;;;1.31;58.03
31331;BME280;34067;39.548;-76.088;2024-01-30T02:36:10;101841.99;;;1.01;59.55
31331;BME280;34067;39.548;-76.088;2024-01-30T02:38:37;101847.75;;;2.03;57.95
31331;BME280;34067;39.548;-76.088;2024-01-30T02:41:05;101849.75;;;1.17;57.92
31331;BME280;34067;39.548;-76.088;2024-01-30T02:43:32;101853.25;;;1.35;57.99
31331;BME280;34067;39.548;-76.088;2024-01-30T02:46:00;101851.94;;;1.63;58.33
31331;BME280;34067;39.548;-76.088;2024-01-30T02:48:28;101854.11;;;2.10;57.01
31331;BME280;34067;39.548;-76.088;2024-01-30T02:50:55;101860.27;;;1.43;58.50
31331;BME280;34067;39.548;-76.088;2024-01-30T02:53:23;101862.56;;;1.87;57.77
31331;BME280;34067;39.548;-76.088;2024-01-30T02:55:51;101863.66;;;2.02;58.25
31331;BME280;34067;39.548;-76.088;2024-01-30T02:58:19;101863.11;;;1.24;58.05
31331;BME280;34067;39.548;-76.088;2024-01-30T03:00:47;101864.04;;;1.10;56.93
31331;BME280;34067;39.548;-76.088;2024-01-30T03:03:15;101872.96;;;1.89;57.78
31331;BME280;34067;39.548;-76.088;2024-01-30T03:05:43;101875.52;;;1.88;56.96
31331;BME280;34067;39.548;-76.088;2024-01-30T03:08:10;101878.34;;;1.64;58.67
31331;BME280;34067;39.548;-76.088;2024-01-30T03:10:38;101873.66;;;2.04;57.76
31331;BME280;34067;39.548;-76.088;2024-01-30T03:13:07;101874.79;;;2.34;58.54
31331;BME280;34067;39.548;-76.088;2024-01-30T03:15:35;101878.00;;;1.43;57.92
31331;BME280;34067;39.548;-76.088;2024-01-30T03:18:03;101878.31;;;0.91;61.49
31331;BME280;34067;39.548;-76.088;2024-01-30T03:20:31;101877.73;;;1.09;60.91
31331;BME280;34067;39.548;-76.088;2024-01-30T03:23:00;101871.52;;;1.08;58.98
31331;BME280;34067;39.548;-76.088;2024-01-30T03:25:27;101870.93;;;1.08;61.46
31331;BME280;34067;39.548;-76.088;2024-01-30T03:27:55;101877.39;;;0.90;61.79
31331;BME280;34067;39.548;-76.088;2024-01-30T03:30:22;101877.22;;;1.17;62.91
31331;BME280;34067;39.548;-76.088;2024-01-30T03:32:50;101880.27;;;0.53;61.84
31331;BME280;34067;39.548;-76.088;2024-01-30T03:35:19;101881.24;;;0.41;61.98
31331;BME280;34067;39.548;-76.088;2024-01-30T03:37:47;101887.36;;;0.52;62.71
31331;BME280;34067;39.548;-76.088;2024-01-30T03:40:15;101883.06;;;0.75;59.87
31331;BME280;34067;39.548;-76.088;2024-01-30T03:42:42;101884.94;;;-0.61;61.89
31331;BME280;34067;39.548;-76.088;2024-01-30T03:45:10;101884.21;;;-0.00;61.67
31331;BME280;34067;39.548;-76.088;2024-01-30T03:47:38;101889.94;;;1.05;62.36
31331;BME280;34067;39.548;-76.088;2024-01-30T03:50:07;101886.34;;;0.64;61.15
31331;BME280;34067;39.548;-76.088;2024-01-30T03:52:35;101892.42;;;0.13;61.74
31331;BME280;34067;39.548;-76.088;2024-01-30T03:55:03;101891.81;;;0.24;61.25
31331;BME280;34067;39.548;-76.088;2024-01-30T03:57:31;101891.65;;;0.65;60.71
31331;BME280;34067;39.548;-76.088;2024-01-30T03:59:58;101895.87;;;0.86;58.89
31331;BME280;34067;39.548;-76.088;2024-01-30T04:02:26;101899.55;;;1.01;59.81
31331;BME280;34067;39.548;-76.088;2024-01-30T04:04:54;101898.28;;;1.14;59.30
31331;BME280;34067;39.548;-76.088;2024-01-30T04:07:21;101900.63;;;0.68;62.24
31331;BME280;34067;39.548;-76.088;2024-01-30T04:09:49;101902.54;;;0.24;61.72
31331;BME280;34067;39.548;-76.088;2024-01-30T04:12:16;101900.61;;;0.39;60.41
31331;BME280;34067;39.548;-76.088;2024-01-30T04:14:44;101902.20;;;-0.01;61.11
31331;BME280;34067;39.548;-76.088;2024-01-30T04:17:11;101910.09;;;-0.30;62.48
31331;BME280;34067;39.548;-76.088;2024-01-30T04:19:39;101910.26;;;-0.00;64.35
31331;BME280;34067;39.548;-76.088;2024-01-30T04:22:07;101908.62;;;0.47;62.86
31331;BME280;34067;39.548;-76.088;2024-01-30T04:24:35;101912.80;;;0.77;60.97
31331;BME280;34067;39.548;-76.088;2024-01-30T04:27:03;101911.18;;;0.92;60.98
31331;BME280;34067;39.548;-76.088;2024-01-30T04:29:31;101918.68;;;0.52;60.52
31331;BME280;34067;39.548;-76.088;2024-01-30T04:31:59;101920.84;;;-0.01;57.25
31331;BME280;34067;39.548;-76.088;2024-01-30T04:34:28;101925.25;;;0.41;57.59
31331;BME280;34067;39.548;-76.088;2024-01-30T04:36:55;101926.08;;;2.03;56.48
31331;BME280;34067;39.548;-76.088;2024-01-30T04:39:23;101927.16;;;1.09;58.23
31331;BME280;34067;39.548;-76.088;2024-01-30T04:41:51;101927.81;;;1.00;57.02
31331;BME280;34067;39.548;-76.088;2024-01-30T04:44:18;101931.08;;;1.03;58.28
31331;BME280;34067;39.548;-76.088;2024-01-30T04:46:46;101931.20;;;1.15;57.76
31331;BME280;34067;39.548;-76.088;2024-01-30T04:49:13;101929.95;;;1.11;58.43
31331;BME280;34067;39.548;-76.088;2024-01-30T04:51:41;101929.87;;;0.12;57.20
31331;BME280;34067;39.548;-76.088;2024-01-30T04:54:08;101934.21;;;0.30;59.26
31331;BME280;34067;39.548;-76.088;2024-01-30T04:56:36;101931.59;;;0.46;61.70
31331;BME280;34067;39.548;-76.088;2024-01-30T04:59:04;101927.61;;;-0.02;58.52
31331;BME280;34067;39.548;-76.088;2024-01-30T05:01:32;101926.27;;;1.45;59.42
31331;BME280;34067;39.548;-76.088;2024-01-30T05:03:59;101925.98;;;1.40;57.24
31331;BME280;34067;39.548;-76.088;2024-01-30T05:06:27;101923.92;;;1.09;57.78
31331;BME280;34067;39.548;-76.088;2024-01-30T05:08:55;101924.29;;;1.07;57.06
31331;BME280;34067;39.548;-76.088;2024-01-30T05:11:23;101928.57;;;0.80;59.18
31331;BME280;34067;39.548;-76.088;2024-01-30T05:13:51;101931.61;;;0.16;57.35
31331;BME280;34067;39.548;-76.088;2024-01-30T05:16:18;101927.68;;;0.89;56.55
31331;BME280;34067;39.548;-76.088;2024-01-30T05:18:45;101926.60;;;0.85;57.93
31331;BME280;34067;39.548;-76.088;2024-01-30T05:21:13;101927.32;;;1.15;58.64
31331;BME280;34067;39.548;-76.088;2024-01-30T05:23:41;101929.13;;;0.23;57.11
31331;BME280;34067;39.548;-76.088;2024-01-30T05:26:09;101938.74;;;0.48;57.12
31331;BME280;34067;39.548;-76.088;2024-01-30T05:28:36;101944.98;;;0.25;57.67
31331;BME280;34067;39.548;-76.088;2024-01-30T05:31:05;101943.69;;;-0.10;60.58
31331;BME280;34067;39.548;-76.088;2024-01-30T05:33:33;101933.93;;;0.91;61.31
31331;BME280;34067;39.548;-76.088;2024-01-30T05:36:00;101933.79;;;0.74;59.27
31331;BME280;34067;39.548;-76.088;2024-01-30T05:38:30;101936.69;;;0.67;57.06
31331;BME280;34067;39.548;-76.088;2024-01-30T05:40:58;101945.53;;;-0.25;59.33
31331;BME280;34067;39.548;-76.088;2024-01-30T05:43:25;101947.90;;;0.01;59.28
31331;BME280;34067;39.548;-76.088;2024-01-30T05:45:54;101942.65;;;0.21;61.99
31331;BME280;34067;39.548;-76.088;2024-01-30T05:48:21;101943.64;;;0.54;59.75
31331;BME280;34067;39.548;-76.088;2024-01-30T05:50:49;101944.48;;;-0.54;58.90
31331;BME280;34067;39.548;-76.088;2024-01-30T05:53:17;101942.82;;;-0.76;58.72
31331;BME280;34067;39.548;-76.088;2024-01-30T05:55:45;101944.35;;;-0.65;60.84
31331;BME280;34067;39.548;-76.088;2024-01-30T05:58:13;101943.56;;;-0.24;62.93
31331;BME280;34067;39.548;-76.088;2024-01-30T06:03:12;101945.99;;;-0.60;60.42
31331;BME280;34067;39.548;-76.088;2024-01-30T06:05:39;101948.60;;;0.16;65.19
31331;BME280;34067;39.548;-76.088;2024-01-30T06:08:07;101946.81;;;-0.99;62.94
31331;BME280;34067;39.548;-76.088;2024-01-30T06:10:35;101955.93;;;0.10;63.51
31331;BME280;34067;39.548;-76.088;2024-01-30T06:13:03;101953.40;;;-0.68;61.58
31331;BME280;34067;39.548;-76.088;2024-01-30T06:15:31;101956.38;;;-0.71;62.11
31331;BME280;34067;39.548;-76.088;2024-01-30T06:17:58;101955.65;;;-0.44;62.57
31331;BME280;34067;39.548;-76.088;2024-01-30T06:20:26;101956.36;;;-0.64;60.97
31331;BME280;34067;39.548;-76.088;2024-01-30T06:22:53;101957.32;;;0.62;64.86
31331;BME280;34067;39.548;-76.088;2024-01-30T06:25:21;101952.08;;;-0.73;60.84
31331;BME280;34067;39.548;-76.088;2024-01-30T06:27:49;101960.84;;;-0.51;60.73
31331;BME280;34067;39.548;-76.088;2024-01-30T06:30:17;101957.11;;;0.20;61.93
31331;BME280;34067;39.548;-76.088;2024-01-30T06:32:45;101956.95;;;-0.09;60.70
31331;BME280;34067;39.548;-76.088;2024-01-30T06:35:12;101955.51;;;-0.18;63.28
31331;BME280;34067;39.548;-76.088;2024-01-30T06:37:40;101954.81;;;0.19;63.67
31331;BME280;34067;39.548;-76.088;2024-01-30T06:40:09;101959.23;;;-0.26;60.77
31331;BME280;34067;39.548;-76.088;2024-01-30T06:42:37;101958.86;;;0.23;63.03
31331;BME280;34067;39.548;-76.088;2024-01-30T06:45:06;101962.50;;;0.10;64.03
31331;BME280;34067;39.548;-76.088;2024-01-30T06:47:34;101957.81;;;-0.11;60.33
31331;BME280;34067;39.548;-76.088;2024-01-30T06:50:01;101959.59;;;0.94;59.48
31331;BME280;34067;39.548;-76.088;2024-01-30T06:52:30;101962.82;;;1.47;57.83
31331;BME280;34067;39.548;-76.088;2024-01-30T06:54:58;101964.03;;;2.00;55.91
31331;BME280;34067;39.548;-76.088;2024-01-30T06:57:26;101963.47;;;2.63;55.93
31331;BME280;34067;39.548;-76.088;2024-01-30T06:59:54;101963.63;;;2.44;54.56
31331;BME280;34067;39.548;-76.088;2024-01-30T07:02:22;101969.43;;;3.01;53.27
31331;BME280;34067;39.548;-76.088;2024-01-30T07:04:50;101971.53;;;3.46;52.46
31331;BME280;34067;39.548;-76.088;2024-01-30T07:07:18;101974.49;;;3.84;50.92
31331;BME280;34067;39.548;-76.088;2024-01-30T07:09:45;101980.39;;;3.19;52.28
31331;BME280;34067;39.548;-76.088;2024-01-30T07:12:14;101983.23;;;2.31;50.61
31331;BME280;34067;39.548;-76.088;2024-01-30T07:14:41;101979.69;;;1.45;53.02
31331;BME280;34067;39.548;-76.088;2024-01-30T07:17:09;101979.05;;;1.34;55.57
31331;BME280;34067;39.548;-76.088;2024-01-30T07:19:37;101976.06;;;1.51;55.85
31331;BME280;34067;39.548;-76.088;2024-01-30T07:22:04;101977.62;;;2.66;54.63
31331;BME280;34067;39.548;-76.088;2024-01-30T07:24:33;101977.09;;;2.28;52.93
31331;BME280;34067;39.548;-76.088;2024-01-30T07:27:01;101979.74;;;2.90;52.46
31331;BME280;34067;39.548;-76.088;2024-01-30T07:29:29;101983.65;;;2.83;50.87
31331;BME280;34067;39.548;-76.088;2024-01-30T07:31:57;101991.36;;;1.32;52.39
31331;BME280;34067;39.548;-76.088;2024-01-30T07:34:24;101997.96;;;1.85;53.55
31331;BME280;34067;39.548;-76.088;2024-01-30T07:36:52;101999.50;;;1.18;54.18
31331;BME280;34067;39.548;-76.088;2024-01-30T07:39:20;101992.92;;;1.28;54.53
31331;BME280;34067;39.548;-76.088;2024-01-30T07:41:48;101999.95;;;1.93;54.07
31331;BME280;34067;39.548;-76.088;2024-01-30T07:44:16;102001.39;;;1.48;54.08
31331;BME280;34067;39.548;-76.088;2024-01-30T07:46:43;102009.78;;;1.47;54.45
31331;BME280;34067;39.548;-76.088;2024-01-30T07:49:11;102012.18;;;1.94;55.86
31331;BME280;34067;39.548;-76.088;2024-01-30T07:51:38;102006.59;;;2.66;53.45
31331;BME280;34067;39.548;-76.088;2024-01-30T07:54:13;102004.02;;;2.16;52.20
31331;BME280;34067;39.548;-76.088;2024-01-30T07:56:41;102000.14;;;3.15;50.79
31331;BME280;34067;39.548;-76.088;2024-01-30T07:59:10;102000.56;;;3.45;49.70
31331;BME280;34067;39.548;-76.088;2024-01-30T08:01:38;101999.21;;;3.56;48.66
31331;BME280;34067;39.548;-76.088;2024-01-30T08:04:06;101996.06;;;4.35;48.08
31331;BME280;34067;39.548;-76.088;2024-01-30T08:06:34;101995.55;;;4.02;48.61
31331;BME280;34067;39.548;-76.088;2024-01-30T08:09:01;102001.26;;;3.72;47.66
31331;BME280;34067;39.548;-76.088;2024-01-30T08:11:29;102003.56;;;4.36;47.15
31331;BME280;34067;39.548;-76.088;2024-01-30T08:13:57;102006.58;;;4.50;46.27
31331;BME280;34067;39.548;-76.088;2024-01-30T08:16:25;102007.38;;;4.47;46.34
31331;BME280;34067;39.548;-76.088;2024-01-30T08:18:53;102007.09;;;4.75;45.97
31331;BME280;34067;39.548;-76.088;2024-01-30T08:21:20;102012.84;;;3.66;46.63
31331;BME280;34067;39.548;-76.088;2024-01-30T08:23:48;102018.00;;;5.08;46.05
31331;BME280;34067;39.548;-76.088;2024-01-30T08:26:15;102021.96;;;4.53;45.32
31331;BME280;34067;39.548;-76.088;2024-01-30T08:28:42;102021.67;;;4.17;45.24
31331;BME280;34067;39.548;-76.088;2024-01-30T08:31:11;102024.59;;;4.51;46.08
31331;BME280;34067;39.548;-76.088;2024-01-30T08:33:38;102026.27;;;4.59;45.09
31331;BME280;34067;39.548;-76.088;2024-01-30T08:36:06;102028.25;;;4.70;45.30
31331;BME280;34067;39.548;-76.088;2024-01-30T08:38:34;102035.91;;;4.86;44.20
31331;BME280;34067;39.548;-76.088;2024-01-30T08:41:02;102039.89;;;5.12;43.96
31331;BME280;34067;39.548;-76.088;2024-01-30T08:43:31;102041.26;;;4.94;44.20
31331;BME280;34067;39.548;-76.088;2024-01-30T08:45:59;102042.34;;;5.35;44.32
31331;BME280;34067;39.548;-76.088;2024-01-30T08:48:27;102049.81;;;4.80;44.15
31331;BME280;34067;39.548;-76.088;2024-01-30T08:50:56;102054.59;;;4.50;44.43
31331;BME280;34067;39.548;-76.088;2024-01-30T08:53:23;102056.73;;;3.57;46.06
31331;BME280;34067;39.548;-76.088;2024-01-30T08:55:51;102052.56;;;3.87;47.67
31331;BME280;34067;39.548;-76.088;2024-01-30T08:58:18;102051.40;;;3.78;47.23
31331;BME280;34067;39.548;-76.088;2024-01-30T09:00:46;102051.79;;;3.23;46.17
31331;BME280;34067;39.548;-76.088;2024-01-30T09:03:15;102045.95;;;2.04;47.57
31331;BME280;34067;39.548;-76.088;2024-01-30T09:05:43;102043.15;;;2.66;48.65
31331;BME280;34067;39.548;-76.088;2024-01-30T09:08:11;102046.69;;;3.31;48.44
31331;BME280;34067;39.548;-76.088;2024-01-30T09:10:38;102049.09;;;2.44;48.24
31331;BME280;34067;39.548;-76.088;2024-01-30T09:13:06;102048.12;;;2.72;48.64
31331;BME280;34067;39.548;-76.088;2024-01-30T09:15:34;102040.49;;;1.51;49.50
31331;BME280;34067;39.548;-76.088;2024-01-30T09:18:01;102032.69;;;2.21;48.56
31331;BME280;34067;39.548;-76.088;2024-01-30T09:20:29;102030.74;;;3.14;48.45
31331;BME280;34067;39.548;-76.088;2024-01-30T09:22:57;102038.93;;;2.59;47.89
31331;BME280;34067;39.548;-76.088;2024-01-30T09:25:25;102041.09;;;3.03;48.33
31331;BME280;34067;39.548;-76.088;2024-01-30T09:27:52;102041.71;;;2.94;48.51
31331;BME280;34067;39.548;-76.088;2024-01-30T09:30:20;102039.30;;;2.40;50.21
31331;BME280;34067;39.548;-76.088;2024-01-30T09:32:47;102039.49;;;2.87;47.69
31331;BME280;34067;39.548;-76.088;2024-01-30T09:35:15;102039.83;;;2.78;47.38
31331;BME280;34067;39.548;-76.088;2024-01-30T09:37:43;102035.62;;;3.21;47.68
31331;BME280;34067;39.548;-76.088;2024-01-30T09:40:11;102041.68;;;3.51;48.42
31331;BME280;34067;39.548;-76.088;2024-01-30T09:42:40;102041.43;;;3.86;46.14
31331;BME280;34067;39.548;-76.088;2024-01-30T09:45:11;102046.05;;;3.48;46.64
31331;BME280;34067;39.548;-76.088;2024-01-30T09:47:43;102042.90;;;3.78;47.03
31331;BME280;34067;39.548;-76.088;2024-01-30T09:50:13;102046.81;;;4.35;45.90
31331;BME280;34067;39.548;-76.088;2024-01-30T09:52:43;102052.71;;;4.20;46.43
31331;BME280;34067;39.548;-76.088;2024-01-30T09:55:12;102056.41;;;3.28;47.37
31331;BME280;34067;39.548;-76.088;2024-01-30T09:57:41;102052.40;;;4.74;46.19
31331;BME280;34067;39.548;-76.088;2024-01-30T10:00:10;102047.32;;;4.16;46.73
31331;BME280;34067;39.548;-76.088;2024-01-30T10:02:39;102047.83;;;3.33;46.36
31331;BME280;34067;39.548;-76.088;2024-01-30T10:05:08;102049.21;;;3.37;45.50
31331;BME280;34067;39.548;-76.088;2024-01-30T10:07:36;102040.80;;;3.51;46.95
31331;BME280;34067;39.548;-76.088;2024-01-30T10:10:06;102025.99;;;4.18;45.81
31331;BME280;34067;39.548;-76.088;2024-01-30T10:12:33;102031.21;;;4.18;46.30
31331;BME280;34067;39.548;-76.088;2024-01-30T10:15:01;102046.86;;;4.45;46.22
31331;BME280;34067;39.548;-76.088;2024-01-30T10:17:29;102057.08;;;4.57;47.39
31331;BME280;34067;39.548;-76.088;2024-01-30T10:19:58;102058.43;;;4.12;46.26
31331;BME280;34067;39.548;-76.088;2024-01-30T10:22:25;102056.18;;;4.40;45.22
31331;BME280;34067;39.548;-76.088;2024-01-30T10:24:53;102055.21;;;4.50;45.10
31331;BME280;34067;39.548;-76.088;2024-01-30T10:27:26;102063.07;;;4.32;45.16
31331;BME280;34067;39.548;-76.088;2024-01-30T10:29:54;102065.69;;;4.02;45.50
31331;BME280;34067;39.548;-76.088;2024-01-30T10:32:21;102066.29;;;4.80;46.11
31331;BME280;34067;39.548;-76.088;2024-01-30T10:34:49;102063.87;;;4.08;46.12
31331;BME280;34067;39.548;-76.088;2024-01-30T10:37:18;102062.24;;;4.09;46.03
31331;BME280;34067;39.548;-76.088;2024-01-30T10:39:46;102067.99;;;3.84;45.98
31331;BME280;34067;39.548;-76.088;2024-01-30T10:42:17;102070.48;;;4.01;46.50
31331;BME280;34067;39.548;-76.088;2024-01-30T10:44:54;102072.96;;;3.84;45.51
31331;BME280;34067;39.548;-76.088;2024-01-30T10:47:27;102081.05;;;3.12;45.95
31331;BME280;34067;39.548;-76.088;2024-01-30T10:49:56;102087.53;;;3.46;45.99
31331;BME280;34067;39.548;-76.088;2024-01-30T10:52:26;102093.40;;;3.97;46.44
31331;BME280;34067;39.548;-76.088;2024-01-30T10:54:55;102098.85;;;3.69;47.50
31331;BME280;34067;39.548;-76.088;2024-01-30T10:57:25;102104.46;;;3.73;48.12
31331;BME280;34067;39.548;-76.088;2024-01-30T10:59:56;102105.20;;;3.54;46.80
31331;BME280;34067;39.548;-76.088;2024-01-30T11:02:26;102113.78;;;3.69;47.63
31331;BME280;34067;39.548;-76.088;2024-01-30T11:04:56;102123.41;;;3.35;47.52
31331;BME280;34067;39.548;-76.088;2024-01-30T11:07:26;102126.50;;;2.69;46.51
31331;BME280;34067;39.548;-76.088;2024-01-30T11:10:00;102129.56;;;3.54;46.41
31331;BME280;34067;39.548;-76.088;2024-01-30T11:12:30;102131.69;;;3.22;47.02
31331;BME280;34067;39.548;-76.088;2024-01-30T11:15:07;102129.56;;;3.68;46.30
31331;BME280;34067;39.548;-76.088;2024-01-30T11:17:44;102128.72;;;3.67;45.95
31331;BME280;34067;39.548;-76.088;2024-01-30T11:20:12;102133.71;;;3.14;46.36
31331;BME280;34067;39.548;-76.088;2024-01-30T11:22:44;102143.89;;;3.78;46.57
31331;BME280;34067;39.548;-76.088;2024-01-30T11:25:14;102145.80;;;3.16;47.39
31331;BME280;34067;39.548;-76.088;2024-01-30T11:27:43;102145.52;;;3.29;47.42
31331;BME280;34067;39.548;-76.088;2024-01-30T11:30:20;102155.65;;;3.43;46.62
31331;BME280;34067;39.548;-76.088;2024-01-30T11:32:59;102159.68;;;3.53;46.27
31331;BME280;34067;39.548;-76.088;2024-01-30T11:35:27;102160.86;;;4.28;45.96
31331;BME280;34067;39.548;-76.088;2024-01-30T11:37:58;102162.63;;;4.04;45.32
31331;BME280;34067;39.548;-76.088;2024-01-30T11:40:28;102160.75;;;4.01;44.87
31331;BME280;34067;39.548;-76.088;2024-01-30T11:42:57;102162.75;;;3.69;45.57
31331;BME280;34067;39.548;-76.088;2024-01-30T11:45:27;102160.29;;;3.41;45.82
31331;BME280;34067;39.548;-76.088;2024-01-30T11:47:55;102155.68;;;3.74;46.15
31331;BME280;34067;39.548;-76.088;2024-01-30T11:50:24;102162.09;;;3.00;47.21
31331;BME280;34067;39.548;-76.088;2024-01-30T11:52:54;102164.52;;;3.56;46.08
31331;BME280;34067;39.548;-76.088;2024-01-30T11:55:23;102168.13;;;2.74;47.74
31331;BME280;34067;39.548;-76.088;2024-01-30T11:57:51;102165.66;;;3.70;46.50
31331;BME280;34067;39.548;-76.088;2024-01-30T12:00:22;102163.88;;;4.27;46.93
31331;BME280;34067;39.548;-76.088;2024-01-30T12:02:51;102164.47;;;4.08;46.16
31331;BME280;34067;39.548;-76.088;2024-01-30T12:05:20;102172.32;;;4.13;46.28
31331;BME280;34067;39.548;-76.088;2024-01-30T12:07:48;102170.46;;;4.48;45.03
31331;BME280;34067;39.548;-76.088;2024-01-30T12:10:16;102174.94;;;3.65;44.95
31331;BME280;34067;39.548;-76.088;2024-01-30T12:12:47;102180.03;;;3.39;46.14
31331;BME280;34067;39.548;-76.088;2024-01-30T12:15:16;102183.00;;;2.68;46.41
31331;BME280;34067;39.548;-76.088;2024-01-30T12:17:44;102185.13;;;2.63;47.42
31331;BME280;34067;39.548;-76.088;2024-01-30T12:20:13;102186.59;;;3.03;47.74
31331;BME280;34067;39.548;-76.088;2024-01-30T12:22:42;102193.54;;;1.73;51.19
31331;BME280;34067;39.548;-76.088;2024-01-30T12:25:12;102192.90;;;2.13;49.62
31331;BME280;34067;39.548;-76.088;2024-01-30T12:27:42;102196.25;;;2.48;46.82
31331;BME280;34067;39.548;-76.088;2024-01-30T12:30:12;102199.59;;;2.66;47.58
31331;BME280;34067;39.548;-76.088;2024-01-30T12:32:42;102203.67;;;2.59;47.06
31331;BME280;34067;39.548;-76.088;2024-01-30T12:35:11;102201.90;;;2.29;47.68
31331;BME280;34067;39.548;-76.088;2024-01-30T12:37:39;102205.38;;;2.93;47.19
31331;BME280;34067;39.548;-76.088;2024-01-30T12:40:08;102205.92;;;2.11;48.89
31331;BME280;34067;39.548;-76.088;2024-01-30T12:42:36;102209.49;;;2.48;48.49
31331;BME280;34067;39.548;-76.088;2024-01-30T12:45:06;102208.50;;;2.91;47.38